Погода Боанена неделю

Иньямбане, Мозамбик

16 - 22 июля
  • 16июля
    Сегодня
    +18°
    +26°
    Небольшая облачность и лёгкий дождик
    ВремяПогодаТемператураВлажностьДавлениеВетер, м/сВероятность осадков
    02:00Практически безоблачно+21°C92 %762 мм2.9 м/с31 %
    05:00Практически безоблачно+20°C91 %762 мм1.7 м/с25 %
    08:00Ясно и безоблачно+23°C80 %763 мм2.7 м/с22 %
    11:00Небольшая облачность и лёгкий дождик+25°C66 %763 мм2.6 м/с62 %
    14:00Небольшая облачность и лёгкий дождик+26°C64 %761 мм1.7 м/с51 %
    17:00Ясно и безоблачно+24°C77 %761 мм2.4 м/с23 %
    20:00Ясно и безоблачно+22°C90 %762 мм2.2 м/с4 %
    23:00Ясно и безоблачно+22°C90 %762 мм2.6 м/с4 %
  • 17июля
    Среда
    +19°
    +29°
    Ясно и безоблачно
    ВремяПогодаТемператураВлажностьДавлениеВетер, м/сВероятность осадков
    02:00Ясно и безоблачно+21°C92 %761 мм2.5 м/с3 %
    05:00Ясно и безоблачно+19°C92 %762 мм2.2 м/с4 %
    08:00Ясно и безоблачно+22°C84 %763 мм2.1 м/с4 %
    11:00Ясно и безоблачно+27°C60 %763 мм3.8 м/с4 %
    14:00Ясно и безоблачно+28°C61 %762 мм4.8 м/с4 %
    17:00Ясно и безоблачно+25°C75 %762 мм4.6 м/с5 %
    20:00Ясно и безоблачно+23°C81 %763 мм3.6 м/с5 %
    23:00Ясно и безоблачно+22°C87 %763 мм3.1 м/с5 %
  • 18июля
    Четверг
    +17°
    +28°
    Ясно и безоблачно
    ВремяПогодаТемператураВлажностьДавлениеВетер, м/сВероятность осадков
    02:00Ясно и безоблачно+21°C89 %762 мм2.9 м/с5 %
    05:00Ясно и безоблачно+19°C91 %763 мм2.5 м/с5 %
    08:00Ясно и безоблачно+22°C82 %764 мм2.2 м/с4 %
    11:00Ясно и безоблачно+26°C59 %764 мм4.2 м/с5 %
    14:00Ясно и безоблачно+27°C60 %762 мм5.1 м/с5 %
    17:00Ясно и безоблачно+24°C68 %762 мм4.5 м/с5 %
    20:00Ясно и безоблачно+22°C75 %762 мм3.5 м/с5 %
    23:00Ясно и безоблачно+21°C81 %762 мм3.0 м/с5 %
  • 19июля
    Пятница
    +16°
    +28°
    Ясно и безоблачно
    ВремяПогодаТемператураВлажностьДавлениеВетер, м/сВероятность осадков
    02:00Ясно и безоблачно+20°C85 %761 мм2.6 м/с5 %
    05:00Ясно и безоблачно+17°C87 %761 мм2.2 м/с5 %
    08:00Ясно и безоблачно+21°C76 %762 мм2.3 м/с5 %
    11:00Ясно и безоблачно+26°C53 %762 мм3.5 м/с5 %
    14:00Ясно и безоблачно+28°C56 %760 мм3.6 м/с5 %
    17:00Ясно и безоблачно+24°C72 %760 мм3.4 м/с5 %
    20:00Ясно и безоблачно+22°C81 %760 мм2.7 м/с5 %
    23:00Ясно и безоблачно+21°C88 %760 мм2.4 м/с5 %
  • 20июля
    Суббота
    +16°
    +28°
    Практически безоблачно
    ВремяПогодаТемператураВлажностьДавлениеВетер, м/сВероятность осадков
    02:00Ясно и безоблачно+20°C90 %760 мм2.1 м/с5 %
    05:00Ясно и безоблачно+17°C93 %760 мм1.6 м/с5 %
    08:00Ясно и безоблачно+20°C87 %761 мм1.1 м/с5 %
    11:00Ясно и безоблачно+26°C63 %761 мм2.0 м/с5 %
    14:00Практически безоблачно+28°C58 %759 мм3.1 м/с5 %
    17:00Ясно и безоблачно+24°C74 %760 мм3.9 м/с5 %
    20:00Ясно и безоблачно+22°C79 %760 мм3.0 м/с5 %
    23:00Ясно и безоблачно+21°C85 %761 мм2.6 м/с13 %
Мы используем cookies
Соглашаюсь